createdAt,value
2019-02-11T00:00:19.096Z,18.93
2019-02-11T00:01:19.675Z,18.99
2019-02-11T00:02:20.486Z,18.95
2019-02-11T00:03:21.059Z,18.90
2019-02-11T00:04:21.636Z,18.88
2019-02-11T00:05:22.252Z,18.83
2019-02-11T00:06:22.828Z,18.80
2019-02-11T00:07:23.404Z,18.78
2019-02-11T00:08:23.982Z,18.73
2019-02-11T00:09:24.557Z,18.62
2019-02-11T00:10:25.133Z,18.63
2019-02-11T00:11:25.708Z,18.65
2019-02-11T00:12:26.286Z,18.65
2019-02-11T00:13:26.858Z,18.63
2019-02-11T00:14:27.435Z,18.56
2019-02-11T00:15:28.006Z,18.58
2019-02-11T00:16:28.582Z,18.53
2019-02-11T00:17:29.159Z,18.53
2019-02-11T00:18:29.732Z,18.62
2019-02-11T00:19:30.407Z,18.52
2019-02-11T00:20:31.024Z,18.53
2019-02-11T00:21:31.599Z,18.53
2019-02-11T00:22:32.171Z,18.43
2019-02-11T00:23:32.746Z,18.41
2019-02-11T00:24:33.324Z,18.44
2019-02-11T00:25:33.935Z,18.41
2019-02-11T00:26:34.508Z,18.40
2019-02-11T00:27:35.083Z,18.33
2019-02-11T00:28:35.656Z,18.29
2019-02-11T00:29:36.232Z,18.28
2019-02-11T00:30:36.856Z,18.29
2019-02-11T00:31:37.479Z,18.25
2019-02-11T00:32:38.052Z,18.19
2019-02-11T00:33:38.677Z,18.25
2019-02-11T00:34:39.294Z,18.25
2019-02-11T00:35:39.867Z,18.16
2019-02-11T00:36:40.442Z,18.18
2019-02-11T00:37:41.015Z,18.20
2019-02-11T00:38:41.591Z,18.11
2019-02-11T00:39:42.174Z,18.25
2019-02-11T00:40:42.786Z,18.22
2019-02-11T00:41:43.360Z,18.20
2019-02-11T00:42:43.986Z,18.15
2019-02-11T00:43:44.562Z,18.13
2019-02-11T00:44:45.139Z,18.10
2019-02-11T00:45:45.710Z,18.11
2019-02-11T00:46:46.285Z,18.03
2019-02-11T00:47:46.860Z,18.05
2019-02-11T00:48:47.486Z,18.08
2019-02-11T00:49:48.059Z,18.07
2019-02-11T00:50:48.639Z,18.13
2019-02-11T00:51:49.207Z,18.10
2019-02-11T00:52:49.781Z,17.94
2019-02-11T00:53:50.355Z,18.03
2019-02-11T00:54:50.928Z,17.97
2019-02-11T00:55:51.500Z,18.01
2019-02-11T00:56:52.072Z,17.98
2019-02-11T00:57:52.645Z,18.00
2019-02-11T00:58:53.216Z,17.98
2019-02-11T00:59:53.792Z,18.01
2019-02-11T01:00:54.364Z,18.00
2019-02-11T01:01:54.936Z,17.95
2019-02-11T01:02:55.508Z,17.89
2019-02-11T01:03:56.084Z,17.87
2019-02-11T01:04:56.655Z,17.89
2019-02-11T01:05:57.280Z,17.85
2019-02-11T01:06:57.856Z,17.92
2019-02-11T01:07:58.481Z,17.83
2019-02-11T01:08:59.057Z,17.80
2019-02-11T01:09:59.681Z,17.89
2019-02-11T01:11:00.255Z,17.94
2019-02-11T01:12:01.628Z,17.87
2019-02-11T01:13:02.205Z,17.85
2019-02-11T01:14:02.780Z,17.79
2019-02-11T01:15:03.356Z,17.86
2019-02-11T01:16:03.929Z,17.83
2019-02-11T01:17:04.505Z,17.78
2019-02-11T01:18:05.079Z,17.82
2019-02-11T01:19:05.654Z,17.80
2019-02-11T01:20:06.227Z,17.80
2019-02-11T01:21:06.804Z,17.80
2019-02-11T01:22:07.379Z,17.72
2019-02-11T01:23:07.958Z,17.74
2019-02-11T01:24:08.533Z,17.68
2019-02-11T01:25:09.097Z,17.74
2019-02-11T01:26:09.721Z,17.71
2019-02-11T01:27:10.295Z,17.74
2019-02-11T01:28:10.873Z,17.72
2019-02-11T01:29:11.444Z,17.72
2019-02-11T01:30:12.018Z,17.70
2019-02-11T01:31:12.591Z,17.67
2019-02-11T01:32:13.175Z,17.63
2019-02-11T01:33:13.789Z,17.64
2019-02-11T01:34:14.361Z,17.57
2019-02-11T01:35:14.939Z,17.57
2019-02-11T01:36:15.507Z,17.63
2019-02-11T01:37:16.082Z,17.56
2019-02-11T01:38:16.696Z,17.64
2019-02-11T01:39:17.274Z,17.56
2019-02-11T01:40:17.888Z,17.60
2019-02-11T01:41:18.460Z,17.56
2019-02-11T01:42:19.034Z,17.57
2019-02-11T01:43:19.607Z,17.54
2019-02-11T01:44:20.181Z,17.57
2019-02-11T01:45:20.754Z,17.59
2019-02-11T01:46:21.383Z,17.57
2019-02-11T01:47:21.954Z,17.52
2019-02-11T01:48:22.527Z,17.51
2019-02-11T01:49:23.153Z,17.49
2019-02-11T01:50:23.728Z,17.52
2019-02-11T01:51:24.300Z,17.48
2019-02-11T01:52:24.873Z,17.51
2019-02-11T01:53:25.447Z,17.45
2019-02-11T01:54:26.069Z,17.46
2019-02-11T01:55:26.643Z,17.46
2019-02-11T01:56:27.219Z,17.46
2019-02-11T01:57:27.794Z,17.45
2019-02-11T01:58:28.368Z,17.44
2019-02-11T01:59:28.942Z,17.41
2019-02-11T02:00:29.515Z,17.44
2019-02-11T02:01:30.139Z,17.44
2019-02-11T02:02:30.712Z,17.42
2019-02-11T02:03:31.284Z,17.41
2019-02-11T02:04:31.857Z,17.46
2019-02-11T02:05:32.430Z,17.42
2019-02-11T02:06:33.003Z,17.44
2019-02-11T02:07:33.576Z,17.41
2019-02-11T02:08:34.150Z,17.39
2019-02-11T02:09:34.724Z,17.33
2019-02-11T02:10:35.296Z,17.29
2019-02-11T02:11:35.868Z,17.31
2019-02-11T02:12:36.441Z,17.24
2019-02-11T02:13:44.646Z,17.38
2019-02-11T02:14:38.626Z,17.33
2019-02-11T02:15:39.200Z,17.38
2019-02-11T02:16:39.774Z,17.34
2019-02-11T02:17:40.348Z,17.33
2019-02-11T02:18:40.922Z,17.34
2019-02-11T02:19:41.499Z,17.33
2019-02-11T02:20:42.070Z,17.26
2019-02-11T02:21:42.703Z,17.22
2019-02-11T02:22:43.363Z,17.29
2019-02-11T02:23:43.933Z,17.27
2019-02-11T02:24:44.508Z,17.29
2019-02-11T02:25:45.082Z,17.30
2019-02-11T02:26:45.665Z,17.26
2019-02-11T02:27:46.234Z,17.27
2019-02-11T02:28:46.806Z,17.16
2019-02-11T02:29:47.380Z,17.08
2019-02-11T02:30:47.958Z,17.26
2019-02-11T02:31:48.570Z,17.26
2019-02-11T02:32:49.144Z,17.06
2019-02-11T02:33:49.767Z,17.26
2019-02-11T02:34:50.340Z,17.22
2019-02-11T02:35:50.918Z,17.20
2019-02-11T02:36:51.530Z,17.15
2019-02-11T02:37:52.107Z,17.20
2019-02-11T02:38:52.712Z,17.20
2019-02-11T02:39:53.255Z,17.20
2019-02-11T02:40:53.826Z,17.14
2019-02-11T02:41:54.402Z,17.20
2019-02-11T02:42:54.974Z,17.16
2019-02-11T02:43:56.021Z,17.20
2019-02-11T02:44:56.578Z,17.19
2019-02-11T02:45:57.149Z,17.12
2019-02-11T02:46:57.723Z,17.22
2019-02-11T02:47:58.339Z,17.05
2019-02-11T02:48:58.909Z,17.09
2019-02-11T02:49:59.482Z,17.16
2019-02-11T02:51:00.053Z,17.19
2019-02-11T02:52:00.627Z,17.20
2019-02-11T02:53:01.242Z,17.14
2019-02-11T02:54:01.821Z,17.19
2019-02-11T02:55:02.387Z,17.16
2019-02-11T02:56:02.958Z,17.16
2019-02-11T02:57:03.533Z,17.14
2019-02-11T02:58:04.109Z,16.99
2019-02-11T02:59:04.720Z,17.05
2019-02-11T03:00:05.293Z,17.06
2019-02-11T03:01:10.956Z,17.08
2019-02-11T03:02:11.493Z,17.04
2019-02-11T03:03:12.065Z,17.06
2019-02-11T03:04:12.638Z,17.02
2019-02-11T03:05:13.213Z,17.05
2019-02-11T03:06:13.785Z,17.08
2019-02-11T03:07:14.358Z,16.96
2019-02-11T03:08:14.931Z,17.01
2019-02-11T03:09:15.553Z,17.04
2019-02-11T03:10:16.132Z,16.97
2019-02-11T03:11:16.698Z,16.97
2019-02-11T03:12:17.270Z,16.99
2019-02-11T03:13:17.905Z,17.01
2019-02-11T03:14:18.518Z,16.97
2019-02-11T03:15:19.104Z,16.96
2019-02-11T03:16:19.712Z,16.99
2019-02-11T03:17:20.282Z,16.97
2019-02-11T03:18:20.853Z,16.90
2019-02-11T03:19:21.441Z,16.87
2019-02-11T03:20:22.011Z,16.87
2019-02-11T03:21:22.571Z,16.93
2019-02-11T03:22:23.144Z,16.94
2019-02-11T03:23:23.718Z,16.93
2019-02-11T03:24:24.336Z,16.96
2019-02-11T03:25:24.914Z,16.90
2019-02-11T03:26:25.479Z,16.86
2019-02-11T03:27:26.052Z,16.90
2019-02-11T03:28:26.633Z,16.91
2019-02-11T03:29:27.296Z,16.76
2019-02-11T03:30:27.869Z,16.93
2019-02-11T03:31:28.484Z,16.90
2019-02-11T03:32:29.152Z,16.90
2019-02-11T03:33:29.724Z,16.84
2019-02-11T03:34:30.295Z,16.84
2019-02-11T03:35:30.866Z,16.69
2019-02-11T03:36:31.441Z,16.78
2019-02-11T03:37:32.016Z,16.79
2019-02-11T03:38:32.640Z,16.79
2019-02-11T03:39:33.209Z,16.65
2019-02-11T03:40:33.831Z,16.79
2019-02-11T03:41:34.405Z,16.81
2019-02-11T03:42:34.977Z,16.79
2019-02-11T03:43:35.554Z,16.75
2019-02-11T03:44:36.125Z,16.75
2019-02-11T03:45:36.748Z,16.74
2019-02-11T03:46:37.321Z,16.69
2019-02-11T03:47:37.893Z,16.72
2019-02-11T03:48:38.538Z,16.72
2019-02-11T03:49:39.062Z,16.69
2019-02-11T03:50:39.636Z,16.71
2019-02-11T03:51:40.305Z,16.64
2019-02-11T03:52:40.877Z,16.64
2019-02-11T03:53:41.449Z,16.58
2019-02-11T03:54:42.022Z,16.65
2019-02-11T03:55:42.595Z,16.57
2019-02-11T03:56:43.175Z,16.58
2019-02-11T03:57:43.791Z,16.66
2019-02-11T03:58:44.362Z,16.64
2019-02-11T03:59:44.938Z,16.60
2019-02-11T04:00:45.548Z,16.68
2019-02-11T04:01:46.122Z,16.68
2019-02-11T04:02:46.743Z,16.60
2019-02-11T04:03:47.315Z,16.61
2019-02-11T04:04:47.887Z,16.61
2019-02-11T04:05:48.459Z,16.65
2019-02-11T04:06:49.036Z,16.58
2019-02-11T04:07:49.701Z,16.69
2019-02-11T04:08:50.276Z,16.60
2019-02-11T04:09:50.849Z,16.58
2019-02-11T04:10:51.426Z,16.54
2019-02-11T04:11:51.997Z,16.60
2019-02-11T04:12:52.569Z,16.53
2019-02-11T04:13:53.140Z,16.56
2019-02-11T04:14:53.713Z,16.56
2019-02-11T04:15:54.285Z,16.56
2019-02-11T04:16:54.909Z,16.56
2019-02-11T04:17:55.603Z,16.57
2019-02-11T04:18:56.135Z,16.60
2019-02-11T04:19:56.707Z,16.51
2019-02-11T04:20:57.281Z,16.50
2019-02-11T04:21:57.853Z,16.57
2019-02-11T04:22:58.426Z,16.47
2019-02-11T04:23:59.058Z,16.58
2019-02-11T04:24:59.622Z,16.60
2019-02-11T04:26:00.194Z,16.50
2019-02-11T04:27:00.766Z,16.60
2019-02-11T04:28:01.391Z,16.53
2019-02-11T04:29:01.962Z,16.47
2019-02-11T04:30:02.536Z,16.43
2019-02-11T04:31:03.104Z,16.50
2019-02-11T04:32:03.681Z,16.51
2019-02-11T04:33:04.351Z,16.43
2019-02-11T04:34:04.914Z,16.41
2019-02-11T04:35:05.534Z,16.36
2019-02-11T04:36:06.110Z,16.41
2019-02-11T04:37:06.685Z,16.43
2019-02-11T04:38:07.257Z,16.47
2019-02-11T04:39:07.837Z,16.31
2019-02-11T04:40:08.404Z,16.38
2019-02-11T04:41:08.982Z,16.43
2019-02-11T04:42:09.550Z,16.38
2019-02-11T04:43:10.130Z,16.32
2019-02-11T04:44:10.800Z,16.39
2019-02-11T04:45:11.422Z,16.29
2019-02-11T04:46:11.993Z,16.46
2019-02-11T04:47:12.566Z,16.36
2019-02-11T04:48:13.189Z,16.39
2019-02-11T04:49:13.761Z,16.33
2019-02-11T04:50:14.333Z,16.35
2019-02-11T04:51:14.906Z,16.31
2019-02-11T04:52:15.477Z,16.36
2019-02-11T04:53:16.051Z,16.32
2019-02-11T04:54:16.673Z,16.36
2019-02-11T04:55:17.248Z,16.31
2019-02-11T04:56:17.819Z,16.33
2019-02-11T04:57:18.394Z,16.41
2019-02-11T04:58:18.971Z,16.38
2019-02-11T04:59:19.590Z,16.29
2019-02-11T05:00:20.165Z,16.35
2019-02-11T05:01:20.731Z,16.32
2019-02-11T05:02:21.353Z,16.33
2019-02-11T05:03:21.922Z,16.33
2019-02-11T05:04:22.546Z,16.32
2019-02-11T05:05:23.115Z,16.35
2019-02-11T05:06:23.693Z,16.42
2019-02-11T05:07:24.266Z,16.36
2019-02-11T05:08:24.836Z,16.31
2019-02-11T05:09:25.410Z,16.33
2019-02-11T05:10:25.984Z,16.33
2019-02-11T05:11:26.556Z,16.35
2019-02-11T05:12:27.132Z,16.33
2019-02-11T05:13:27.751Z,16.33
2019-02-11T05:14:28.326Z,16.38
2019-02-11T05:15:28.899Z,16.28
2019-02-11T05:16:29.471Z,16.28
2019-02-11T05:17:30.051Z,16.28
2019-02-11T05:18:30.617Z,16.28
2019-02-11T05:19:31.189Z,16.35
2019-02-11T05:20:31.812Z,16.20
2019-02-11T05:21:32.386Z,16.24
2019-02-11T05:22:32.960Z,16.26
2019-02-11T05:23:33.630Z,16.21
2019-02-11T05:24:34.201Z,16.29
2019-02-11T05:25:34.778Z,16.26
2019-02-11T05:26:35.392Z,16.17
2019-02-11T05:27:35.963Z,16.28
2019-02-11T05:28:36.539Z,16.23
2019-02-11T05:29:37.111Z,16.17
2019-02-11T05:30:37.736Z,16.15
2019-02-11T05:31:38.322Z,16.29
2019-02-11T05:32:38.921Z,16.32
2019-02-11T05:33:39.493Z,16.21
2019-02-11T05:34:40.065Z,16.32
2019-02-11T05:35:40.635Z,16.20
2019-02-11T05:36:41.207Z,16.31
2019-02-11T05:37:41.778Z,16.32
2019-02-11T05:38:42.403Z,16.32
2019-02-11T05:39:42.975Z,16.15
2019-02-11T05:40:43.547Z,16.29
2019-02-11T05:41:44.170Z,16.23
2019-02-11T05:42:44.742Z,16.21
2019-02-11T05:43:45.323Z,16.24
2019-02-11T05:44:53.555Z,16.16
2019-02-11T05:45:46.588Z,16.21
2019-02-11T05:46:47.161Z,16.17
2019-02-11T05:47:47.736Z,16.23
2019-02-11T05:48:48.308Z,16.23
2019-02-11T05:49:48.883Z,16.13
2019-02-11T05:50:49.455Z,16.15
2019-02-11T05:51:50.026Z,16.15
2019-02-11T05:52:50.598Z,16.16
2019-02-11T05:53:51.172Z,16.16
2019-02-11T05:54:51.743Z,16.10
2019-02-11T05:55:52.365Z,16.17
2019-02-11T05:56:52.936Z,16.13
2019-02-11T05:57:53.508Z,16.17
2019-02-11T05:58:54.079Z,16.17
2019-02-11T05:59:54.652Z,16.09
2019-02-11T06:00:55.227Z,16.09
2019-02-11T06:01:55.796Z,16.24
2019-02-11T06:02:56.367Z,16.15
2019-02-11T06:03:56.939Z,16.02
2019-02-11T06:04:57.510Z,16.13
2019-02-11T06:05:58.136Z,16.13
2019-02-11T06:06:58.706Z,16.05
2019-02-11T06:07:59.276Z,16.08
2019-02-11T06:08:59.851Z,16.12
2019-02-11T06:10:00.423Z,16.05
2019-02-11T06:11:01.014Z,16.10
2019-02-11T06:12:01.587Z,16.05
2019-02-11T06:13:02.210Z,16.08
2019-02-11T06:14:02.784Z,16.01
2019-02-11T06:15:04.715Z,16.05
2019-02-11T06:16:04.919Z,16.09
2019-02-11T06:17:05.492Z,16.02
2019-02-11T06:18:06.065Z,16.09
2019-02-11T06:19:06.640Z,15.95
2019-02-11T06:20:07.220Z,16.02
2019-02-11T06:21:07.786Z,16.05
2019-02-11T06:22:08.414Z,15.98
2019-02-11T06:23:08.983Z,15.98
2019-02-11T06:24:09.605Z,15.95
2019-02-11T06:25:10.176Z,16.01
2019-02-11T06:26:10.753Z,16.00
2019-02-11T06:27:11.325Z,16.05
2019-02-11T06:28:11.899Z,15.95
2019-02-11T06:29:12.470Z,16.05
2019-02-11T06:30:13.045Z,16.05
2019-02-11T06:31:13.667Z,15.97
2019-02-11T06:32:14.340Z,15.97
2019-02-11T06:33:14.913Z,16.04
2019-02-11T06:34:15.486Z,16.00
2019-02-11T06:35:16.057Z,16.01
2019-02-11T06:36:16.635Z,15.94
2019-02-11T06:37:17.202Z,16.01
2019-02-11T06:38:17.772Z,16.02
2019-02-11T06:39:18.344Z,15.92
2019-02-11T06:40:18.915Z,15.94
2019-02-11T06:41:19.491Z,15.98
2019-02-11T06:42:20.203Z,15.98
2019-02-11T06:43:20.775Z,15.97
2019-02-11T06:44:21.349Z,15.95
2019-02-11T06:45:21.920Z,15.90
2019-02-11T06:46:22.494Z,15.88
2019-02-11T06:47:23.064Z,15.86
2019-02-11T06:48:23.689Z,15.91
2019-02-11T06:49:24.310Z,15.92
2019-02-11T06:50:24.882Z,15.86
2019-02-11T06:51:25.457Z,15.90
2019-02-11T06:52:26.032Z,15.84
2019-02-11T06:53:26.604Z,15.86
2019-02-11T06:54:27.179Z,15.90
2019-02-11T06:55:27.750Z,15.84
2019-02-11T06:56:28.322Z,15.83
2019-02-11T06:57:28.897Z,15.82
2019-02-11T06:58:29.469Z,15.91
2019-02-11T06:59:30.041Z,15.83
2019-02-11T07:00:30.663Z,15.83
2019-02-11T07:01:31.241Z,15.82
2019-02-11T07:02:31.807Z,15.91
2019-02-11T07:03:32.378Z,15.84
2019-02-11T07:04:32.949Z,15.91
2019-02-11T07:05:33.573Z,15.77
2019-02-11T07:06:34.195Z,15.82
2019-02-11T07:07:34.767Z,15.76
2019-02-11T07:08:35.392Z,15.73
2019-02-11T07:09:36.008Z,15.88
2019-02-11T07:10:36.581Z,15.83
2019-02-11T07:11:37.155Z,15.84
2019-02-11T07:12:37.726Z,15.83
2019-02-11T07:13:38.301Z,15.88
2019-02-11T07:14:38.871Z,15.80
2019-02-11T07:15:39.444Z,15.83
2019-02-11T07:16:40.015Z,15.86
2019-02-11T07:17:40.587Z,15.79
2019-02-11T07:18:41.169Z,15.75
2019-02-11T07:19:41.777Z,15.79
2019-02-11T07:20:42.400Z,15.73
2019-02-11T07:21:42.972Z,15.79
2019-02-11T07:22:43.593Z,15.75
2019-02-11T07:23:44.165Z,15.72
2019-02-11T07:24:44.786Z,15.72
2019-02-11T07:25:45.361Z,15.68
2019-02-11T07:26:45.929Z,15.83
2019-02-11T07:27:46.500Z,15.73
2019-02-11T07:28:47.075Z,15.80
2019-02-11T07:29:47.646Z,15.70
2019-02-11T07:30:48.219Z,15.70
2019-02-11T07:31:48.791Z,15.70
2019-02-11T07:32:49.363Z,15.68
2019-02-11T07:33:49.935Z,15.70
2019-02-11T07:34:50.508Z,15.72
2019-02-11T07:35:51.078Z,15.76
2019-02-11T07:36:51.651Z,15.76
2019-02-11T07:37:52.222Z,15.72
2019-02-11T07:38:52.793Z,15.70
2019-02-11T07:39:53.366Z,15.65
2019-02-11T07:40:53.940Z,15.67
2019-02-11T07:41:54.510Z,15.65
2019-02-11T07:42:55.131Z,15.67
2019-02-11T07:43:55.704Z,15.68
2019-02-11T07:44:56.278Z,15.70
2019-02-11T07:45:56.851Z,15.62
2019-02-11T07:46:57.424Z,15.64
2019-02-11T07:47:58.048Z,15.61
2019-02-11T07:48:58.670Z,15.64
2019-02-11T07:49:59.243Z,15.62
2019-02-11T07:50:59.817Z,15.61
2019-02-11T07:52:00.390Z,15.58
2019-02-11T07:53:01.013Z,15.55
2019-02-11T07:54:01.587Z,15.58
2019-02-11T07:55:02.159Z,15.58
2019-02-11T07:56:02.729Z,15.61
2019-02-11T07:57:03.358Z,15.65
2019-02-11T07:58:03.936Z,15.59
2019-02-11T07:59:04.510Z,15.58
2019-02-11T08:00:05.080Z,15.59
2019-02-11T08:01:05.651Z,15.62
2019-02-11T08:02:06.224Z,15.62
2019-02-11T08:03:06.794Z,15.62
2019-02-11T08:04:07.365Z,15.62
2019-02-11T08:05:07.936Z,15.62
2019-02-11T08:06:09.087Z,15.65
2019-02-11T08:07:09.758Z,15.64
2019-02-11T08:08:10.390Z,15.72
2019-02-11T08:09:10.954Z,15.59
2019-02-11T08:10:11.525Z,15.61
2019-02-11T08:11:12.540Z,15.64
2019-02-11T08:12:13.102Z,15.64
2019-02-11T08:13:13.676Z,15.57
2019-02-11T08:14:14.301Z,15.64
2019-02-11T08:15:14.869Z,15.54
2019-02-11T08:16:15.440Z,15.59
2019-02-11T08:17:16.014Z,15.51
2019-02-11T08:18:16.584Z,15.57
2019-02-11T08:19:17.158Z,15.58
2019-02-11T08:20:17.729Z,15.59
2019-02-11T08:21:18.301Z,15.62
2019-02-11T08:22:18.922Z,15.61
2019-02-11T08:23:19.695Z,15.58
2019-02-11T08:24:20.267Z,15.64
2019-02-11T08:25:20.840Z,15.62
2019-02-11T08:26:21.410Z,15.67
2019-02-11T08:27:21.984Z,15.59
2019-02-11T08:28:22.555Z,15.65
2019-02-11T08:29:23.127Z,15.62
2019-02-11T08:30:23.742Z,15.58
2019-02-11T08:31:24.364Z,15.57
2019-02-11T08:32:24.938Z,15.62
2019-02-11T08:33:25.518Z,15.64
2019-02-11T08:34:26.130Z,15.58
2019-02-11T08:35:26.702Z,15.57
2019-02-11T08:36:27.277Z,15.59
2019-02-11T08:37:27.847Z,15.58
2019-02-11T08:38:28.421Z,15.61
2019-02-11T08:39:28.989Z,15.62
2019-02-11T08:40:29.566Z,15.58
2019-02-11T08:41:30.185Z,15.61
2019-02-11T08:42:30.805Z,15.57
2019-02-11T08:43:31.378Z,15.54
2019-02-11T08:44:33.607Z,15.59
2019-02-11T08:45:33.520Z,15.57
2019-02-11T08:46:34.089Z,15.58
2019-02-11T08:47:34.661Z,15.54
2019-02-11T08:48:35.238Z,15.54
2019-02-11T08:49:35.814Z,15.52
2019-02-11T08:50:36.387Z,15.54
2019-02-11T08:51:37.008Z,15.47
2019-02-11T08:52:37.578Z,15.49
2019-02-11T08:53:38.151Z,15.51
2019-02-11T08:54:38.724Z,15.46
2019-02-11T08:55:39.297Z,15.55
2019-02-11T08:56:39.885Z,15.59
2019-02-11T08:57:40.444Z,15.47
2019-02-11T08:58:41.210Z,15.57
2019-02-11T08:59:41.783Z,15.54
2019-02-11T09:00:42.356Z,15.62
2019-02-11T09:01:42.929Z,15.55
2019-02-11T09:02:43.501Z,15.52
2019-02-11T09:03:44.074Z,15.55
2019-02-11T09:04:44.689Z,15.55
2019-02-11T09:05:45.261Z,15.59
2019-02-11T09:06:45.834Z,15.54
2019-02-11T09:07:46.405Z,15.59
2019-02-11T09:08:46.978Z,15.64
2019-02-11T09:09:47.549Z,15.61
2019-02-11T09:10:48.121Z,15.58
2019-02-11T09:11:48.692Z,15.62
2019-02-11T09:12:49.264Z,15.59
2019-02-11T09:13:49.835Z,15.62
2019-02-11T09:14:50.456Z,15.62
2019-02-11T09:15:55.361Z,15.61
2019-02-11T09:16:52.646Z,15.62
2019-02-11T09:17:53.217Z,15.64
2019-02-11T09:18:53.789Z,15.68
2019-02-11T09:19:54.364Z,15.67
2019-02-11T09:20:54.942Z,15.61
2019-02-11T09:21:55.511Z,15.70
2019-02-11T09:22:56.085Z,15.65
2019-02-11T09:23:56.658Z,15.64
2019-02-11T09:24:57.282Z,15.67
2019-02-11T09:25:57.854Z,15.65
2019-02-11T09:26:58.425Z,15.65
2019-02-11T09:27:59.000Z,15.68
2019-02-11T09:28:59.571Z,15.64
2019-02-11T09:30:00.202Z,15.67
2019-02-11T09:31:00.773Z,15.64
2019-02-11T09:32:01.343Z,15.65
2019-02-11T09:33:01.922Z,15.67
2019-02-11T09:34:02.536Z,15.67
2019-02-11T09:35:03.151Z,15.76
2019-02-11T09:36:03.805Z,15.77
2019-02-11T09:37:04.391Z,15.77
2019-02-11T09:38:04.964Z,15.73
2019-02-11T09:39:05.535Z,15.73
2019-02-11T09:40:06.112Z,15.75
2019-02-11T09:41:06.678Z,15.73
2019-02-11T09:42:07.303Z,15.72
2019-02-11T09:43:07.916Z,15.67
2019-02-11T09:44:08.490Z,15.72
2019-02-11T09:45:09.069Z,15.70
2019-02-11T09:46:09.637Z,15.72
2019-02-11T09:47:10.209Z,15.75
2019-02-11T09:48:10.783Z,15.70
2019-02-11T09:49:11.355Z,15.72
2019-02-11T09:50:11.982Z,15.72
2019-02-11T09:51:12.600Z,15.77
2019-02-11T09:52:13.171Z,15.72
2019-02-11T09:53:13.744Z,15.73
2019-02-11T09:54:14.321Z,15.83
2019-02-11T09:55:14.894Z,15.88
2019-02-11T09:56:15.466Z,15.84
2019-02-11T09:57:16.039Z,15.80
2019-02-11T09:58:16.661Z,15.82
2019-02-11T09:59:17.236Z,15.84
2019-02-11T10:00:17.807Z,15.86
2019-02-11T10:01:18.378Z,15.84
2019-02-11T10:02:18.953Z,15.90
2019-02-11T10:03:19.525Z,15.94
2019-02-11T10:04:20.150Z,15.97
2019-02-11T10:05:20.721Z,15.94
2019-02-11T10:06:21.296Z,15.90
2019-02-11T10:07:21.866Z,15.94
2019-02-11T10:08:22.439Z,15.90
2019-02-11T10:09:23.061Z,15.86
2019-02-11T10:10:23.639Z,15.94
2019-02-11T10:11:24.212Z,15.88
2019-02-11T10:12:24.784Z,15.88
2019-02-11T10:13:25.407Z,15.83
2019-02-11T10:14:26.031Z,15.84
2019-02-11T10:15:26.605Z,15.80
2019-02-11T10:16:27.177Z,15.84
2019-02-11T10:17:29.902Z,15.86
2019-02-11T10:18:29.316Z,15.80
2019-02-11T10:19:29.892Z,15.83
2019-02-11T10:20:30.464Z,15.80
2019-02-11T10:21:31.041Z,15.88
2019-02-11T10:22:31.612Z,15.82
2019-02-11T10:23:32.187Z,15.86
2019-02-11T10:24:32.760Z,15.77
2019-02-11T10:25:33.334Z,15.83
2019-02-11T10:26:33.905Z,15.79
2019-02-11T10:27:34.480Z,15.80
2019-02-11T10:28:35.056Z,15.86
2019-02-11T10:29:35.631Z,15.83
2019-02-11T10:30:36.246Z,15.79
2019-02-11T10:31:36.819Z,15.79
2019-02-11T10:32:37.394Z,15.86
2019-02-11T10:33:37.968Z,15.83
2019-02-11T10:34:38.547Z,15.94
2019-02-11T10:35:42.282Z,15.79
2019-02-11T10:36:39.729Z,15.80
2019-02-11T10:37:40.308Z,15.88
2019-02-11T10:38:40.875Z,15.73
2019-02-11T10:39:41.454Z,15.82
2019-02-11T10:40:42.062Z,15.83
2019-02-11T10:41:42.642Z,15.86
2019-02-11T10:42:43.206Z,15.79
2019-02-11T10:43:43.778Z,15.83
2019-02-11T10:44:44.350Z,15.82
2019-02-11T10:45:44.922Z,15.88
2019-02-11T10:46:45.546Z,15.98
2019-02-11T10:47:46.119Z,15.97
2019-02-11T10:48:46.693Z,15.94
2019-02-11T10:49:47.267Z,16.00
2019-02-11T10:50:47.842Z,16.10
2019-02-11T10:51:48.468Z,16.10
2019-02-11T10:52:49.042Z,16.10
2019-02-11T10:53:49.616Z,16.04
2019-02-11T10:54:50.191Z,16.02
2019-02-11T10:55:50.766Z,16.04
2019-02-11T10:56:51.338Z,16.12
2019-02-11T10:57:51.913Z,16.20
2019-02-11T10:58:52.487Z,16.26
2019-02-11T10:59:53.058Z,16.26
2019-02-11T11:00:53.632Z,16.24
2019-02-11T11:01:54.203Z,16.20
2019-02-11T11:02:54.777Z,16.35
2019-02-11T11:03:55.353Z,16.35
2019-02-11T11:04:55.975Z,16.38
2019-02-11T11:05:56.600Z,16.35
2019-02-11T11:06:57.179Z,16.31
2019-02-11T11:07:57.754Z,16.39
2019-02-11T11:08:58.327Z,16.33
2019-02-11T11:09:58.949Z,16.39
2019-02-11T11:10:59.572Z,16.47
2019-02-11T11:12:00.147Z,16.46
2019-02-11T11:13:00.720Z,16.50
2019-02-11T11:14:01.295Z,16.50
2019-02-11T11:15:01.868Z,16.43
2019-02-11T11:16:02.441Z,16.46
2019-02-11T11:17:03.013Z,16.42
2019-02-11T11:18:03.586Z,16.47
2019-02-11T11:19:04.215Z,16.47
2019-02-11T11:20:04.786Z,16.57
2019-02-11T11:21:05.361Z,16.57
2019-02-11T11:22:05.948Z,16.58
2019-02-11T11:23:06.558Z,16.57
2019-02-11T11:24:07.130Z,16.61
2019-02-11T11:25:07.704Z,16.64
2019-02-11T11:26:08.325Z,16.57
2019-02-11T11:27:08.897Z,16.56
2019-02-11T11:28:09.522Z,16.61
2019-02-11T11:29:10.096Z,16.64
2019-02-11T11:30:10.675Z,16.60
2019-02-11T11:31:11.241Z,16.65
2019-02-11T11:32:11.816Z,16.71
2019-02-11T11:33:12.388Z,16.71
2019-02-11T11:34:13.006Z,16.76
2019-02-11T11:35:13.581Z,16.72
2019-02-11T11:36:14.154Z,16.78
2019-02-11T11:37:14.730Z,16.71
2019-02-11T11:38:15.303Z,16.76
2019-02-11T11:39:15.878Z,16.78
2019-02-11T11:40:16.455Z,16.81
2019-02-11T11:41:17.075Z,16.76
2019-02-11T11:42:17.651Z,16.75
2019-02-11T11:43:18.225Z,16.72
2019-02-11T11:44:18.800Z,16.76
2019-02-11T11:45:19.376Z,16.71
2019-02-11T11:46:20.000Z,16.72
2019-02-11T11:47:20.574Z,16.74
2019-02-11T11:48:21.146Z,16.69
2019-02-11T11:49:21.722Z,16.61
2019-02-11T11:50:22.347Z,16.61
2019-02-11T11:51:22.923Z,16.66
2019-02-11T11:52:23.493Z,16.60
2019-02-11T11:53:24.069Z,16.54
2019-02-11T11:54:24.639Z,16.66
2019-02-11T11:55:25.215Z,16.64
2019-02-11T11:56:25.788Z,16.64
2019-02-11T11:57:26.395Z,16.64
2019-02-11T11:58:27.339Z,16.68
2019-02-11T11:59:28.149Z,16.64
2019-02-11T12:00:28.770Z,16.66
2019-02-11T12:01:29.446Z,16.65
2019-02-11T12:02:30.006Z,16.61
2019-02-11T12:03:30.581Z,16.61
2019-02-11T12:04:31.153Z,16.66
2019-02-11T12:05:31.779Z,16.58
2019-02-11T12:06:32.355Z,16.60
2019-02-11T12:07:33.013Z,16.57
2019-02-11T12:08:33.552Z,16.54
2019-02-11T12:09:34.119Z,16.53
2019-02-11T12:10:34.704Z,16.57
2019-02-11T12:11:35.319Z,16.57
2019-02-11T12:12:35.890Z,16.53
2019-02-11T12:13:36.495Z,16.54
2019-02-11T12:14:37.070Z,16.49
2019-02-11T12:15:37.727Z,16.57
2019-02-11T12:16:55.442Z,16.49
2019-02-11T12:17:39.850Z,16.51
2019-02-11T12:18:40.472Z,16.57
2019-02-11T12:19:41.046Z,16.51
2019-02-11T12:20:41.621Z,16.53
2019-02-11T12:21:42.237Z,16.61
2019-02-11T12:22:42.822Z,16.46
2019-02-11T12:23:43.386Z,16.50
2019-02-11T12:24:43.960Z,16.64
2019-02-11T12:25:44.534Z,16.60
2019-02-11T12:26:45.110Z,16.54
2019-02-11T12:27:45.693Z,16.47
2019-02-11T12:28:46.256Z,16.49
2019-02-11T12:29:46.826Z,16.47
2019-02-11T12:30:47.495Z,16.43
2019-02-11T12:31:48.166Z,16.43
2019-02-11T12:32:48.736Z,16.43
2019-02-11T12:33:49.311Z,16.42
2019-02-11T12:34:49.881Z,16.43
2019-02-11T12:35:50.484Z,16.33
2019-02-11T12:36:51.026Z,16.32
2019-02-11T12:37:51.654Z,16.32
2019-02-11T12:38:52.236Z,16.31
2019-02-11T12:39:52.794Z,16.28
2019-02-11T12:40:53.434Z,16.35
2019-02-11T12:41:53.990Z,16.33
2019-02-11T12:42:54.673Z,16.33
2019-02-11T12:43:55.275Z,16.35
2019-02-11T12:44:55.846Z,16.33
2019-02-11T12:45:56.416Z,16.35
2019-02-11T12:47:12.830Z,16.36
2019-02-11T12:47:57.612Z,16.33
2019-02-11T12:49:01.449Z,16.33
2019-02-11T12:49:59.747Z,16.35
2019-02-11T12:51:00.374Z,16.35
2019-02-11T12:52:00.949Z,16.32
2019-02-11T12:53:01.567Z,16.31
2019-02-11T12:54:02.158Z,16.38
2019-02-11T12:55:07.405Z,16.32
2019-02-11T12:56:04.357Z,16.32
2019-02-11T12:57:04.912Z,16.33
2019-02-11T12:58:05.485Z,16.33
2019-02-11T12:59:06.056Z,16.32
2019-02-11T13:00:06.630Z,16.32